Adams, Tennessee
Current Conditions -  °F | °C
As of 10:35 AM on Friday 28 Nov 2014 (Local Time) from KM91 Reporting Station
Clear Clear  
Wind Chill: 32°   Ceiling: Unl
Heat Index: 36°   Visibility: 10mi
Dew Point: 25°   Wind: 5mph
Humidity: 65%   Direction: 180°S
Pressure: 30.38"   Gusts: NA
Location:  36.58°N, 87.07°W
Report Text: KM91 281635Z AUTO 18004KT 10SM CLR 02/M04 A3038 RMK
Loading
Personal Weather Stations






























Interactive Weather Map New forecast layout! Learn more

10-Day Weather Forecast

Advertisements
Track Severe Weather on mobile